createdAt,value
2022-10-23T00:02:09.642Z,80.22
2022-10-23T00:04:38.851Z,80.14
2022-10-23T00:07:07.931Z,80.04
2022-10-23T00:09:37.339Z,79.97
2022-10-23T00:12:07.079Z,80.12
2022-10-23T00:14:36.475Z,80.17
2022-10-23T00:17:06.061Z,80.35
2022-10-23T00:19:35.539Z,80.52
2022-10-23T00:22:04.967Z,80.62
2022-10-23T00:24:34.465Z,80.83
2022-10-23T00:27:06.480Z,81.13
2022-10-23T00:29:35.709Z,81.15
2022-10-23T00:32:05.228Z,81.21
2022-10-23T00:34:34.622Z,81.39
2022-10-23T00:37:04.102Z,81.15
2022-10-23T00:39:33.442Z,81.26
2022-10-23T00:42:03.152Z,81.18
2022-10-23T00:44:32.809Z,81.17
2022-10-23T00:47:02.669Z,81.46
2022-10-23T00:49:33.583Z,81.57
2022-10-23T00:52:09.435Z,81.49
2022-10-23T00:54:46.417Z,81.41
2022-10-23T00:57:17.819Z,81.35
2022-10-23T00:59:47.631Z,81.47
2022-10-23T01:02:17.440Z,81.50
2022-10-23T01:04:46.867Z,81.72
2022-10-23T01:07:35.135Z,81.78
2022-10-23T01:10:39.373Z,81.79
2022-10-23T01:13:18.582Z,81.77
2022-10-23T01:16:18.186Z,81.63
2022-10-23T01:19:07.498Z,81.79
2022-10-23T01:22:14.763Z,81.77
2022-10-23T01:25:06.758Z,81.87
2022-10-23T01:27:46.937Z,81.99
2022-10-23T01:30:19.024Z,82.16
2022-10-23T01:32:56.262Z,81.97
2022-10-23T01:35:34.295Z,81.95
2022-10-23T01:38:18.709Z,81.92
2022-10-23T01:41:06.336Z,81.97
2022-10-23T01:43:51.038Z,82.00
2022-10-23T01:46:21.231Z,82.17
2022-10-23T01:48:55.768Z,82.08
2022-10-23T01:51:29.514Z,82.08
2022-10-23T01:54:02.409Z,82.07
2022-10-23T01:56:36.367Z,82.12
2022-10-23T01:59:13.196Z,82.02
2022-10-23T02:01:48.359Z,82.31
2022-10-23T02:04:29.374Z,82.32
2022-10-23T02:06:59.661Z,82.08
2022-10-23T02:09:29.510Z,82.11
2022-10-23T02:12:22.965Z,82.10
2022-10-23T02:15:10.690Z,82.20
2022-10-23T02:18:03.431Z,82.31
2022-10-23T02:20:56.005Z,82.37
2022-10-23T02:23:35.622Z,82.26
2022-10-23T02:26:04.765Z,82.42
2022-10-23T02:28:44.956Z,82.54
2022-10-23T02:31:18.714Z,82.53
2022-10-23T02:33:49.712Z,82.66
2022-10-23T02:36:21.318Z,82.50
2022-10-23T02:38:50.851Z,82.73
2022-10-23T02:41:39.804Z,82.74
2022-10-23T02:44:41.044Z,82.70
2022-10-23T02:47:36.203Z,82.55
2022-10-23T02:50:55.957Z,82.55
2022-10-23T02:53:47.523Z,82.37
2022-10-23T02:56:41.225Z,82.33
2022-10-23T02:59:22.701Z,82.00
2022-10-23T03:02:04.476Z,82.14
2022-10-23T03:04:34.961Z,82.04
2022-10-23T03:07:04.444Z,81.97
2022-10-23T03:09:33.704Z,82.16
2022-10-23T03:12:03.020Z,82.25
2022-10-23T03:14:32.337Z,82.12
2022-10-23T03:17:01.619Z,82.13
2022-10-23T03:19:30.828Z,82.18
2022-10-23T03:22:00.100Z,82.40
2022-10-23T03:24:29.418Z,82.25
2022-10-23T03:26:58.704Z,82.25
2022-10-23T03:29:28.391Z,82.14
2022-10-23T03:31:57.541Z,82.06
2022-10-23T03:34:26.844Z,82.15
2022-10-23T03:36:56.285Z,82.22
2022-10-23T03:39:25.600Z,82.38
2022-10-23T03:41:55.270Z,82.28
2022-10-23T03:44:24.310Z,82.44
2022-10-23T03:46:53.744Z,82.39
2022-10-23T03:49:22.985Z,82.42
2022-10-23T03:51:53.836Z,82.51
2022-10-23T03:54:29.230Z,82.50
2022-10-23T03:56:59.186Z,82.53
2022-10-23T03:59:29.510Z,82.50
2022-10-23T04:01:58.817Z,82.45
2022-10-23T04:04:28.119Z,82.39
2022-10-23T04:06:57.126Z,82.50
2022-10-23T04:09:26.523Z,82.39
2022-10-23T04:11:58.347Z,82.26
2022-10-23T04:14:28.347Z,82.29
2022-10-23T04:16:57.802Z,82.28
2022-10-23T04:19:27.424Z,82.21
2022-10-23T04:21:58.153Z,82.18
2022-10-23T04:24:28.318Z,82.30
2022-10-23T04:26:57.460Z,82.35
2022-10-23T04:29:32.596Z,82.32
2022-10-23T04:32:01.872Z,82.36
2022-10-23T04:34:31.052Z,82.44
2022-10-23T04:37:00.344Z,82.64
2022-10-23T04:39:29.707Z,82.71
2022-10-23T04:41:59.054Z,82.78
2022-10-23T04:44:28.377Z,82.69
2022-10-23T04:46:58.180Z,82.64
2022-10-23T04:49:27.518Z,82.78
2022-10-23T04:51:56.650Z,82.66
2022-10-23T04:54:25.935Z,82.61
2022-10-23T04:56:55.259Z,82.75
2022-10-23T04:59:24.414Z,82.94
2022-10-23T05:01:53.594Z,82.84
2022-10-23T05:04:23.071Z,82.66
2022-10-23T05:06:52.400Z,82.75
2022-10-23T05:09:21.371Z,82.70
2022-10-23T05:11:50.921Z,82.70
2022-10-23T05:14:22.692Z,82.78
2022-10-23T05:17:09.390Z,82.77
2022-10-23T05:19:47.596Z,82.72
2022-10-23T05:22:19.645Z,82.73
2022-10-23T05:24:50.600Z,82.79
2022-10-23T05:27:20.187Z,82.78
2022-10-23T05:29:52.221Z,82.79
2022-10-23T05:32:22.962Z,82.88
2022-10-23T05:34:52.604Z,82.87
2022-10-23T05:37:22.438Z,82.97
2022-10-23T05:39:51.744Z,82.90
2022-10-23T05:42:23.591Z,82.97
2022-10-23T05:44:52.782Z,83.05
2022-10-23T05:47:22.099Z,82.96
2022-10-23T05:49:51.638Z,83.05
2022-10-23T05:52:21.351Z,82.96
2022-10-23T05:54:55.119Z,82.87
2022-10-23T05:57:24.602Z,82.82
2022-10-23T05:59:54.094Z,82.88
2022-10-23T06:02:23.662Z,82.80
2022-10-23T06:04:52.809Z,82.83
2022-10-23T06:07:29.161Z,82.77
2022-10-23T06:10:01.458Z,82.77
2022-10-23T06:12:31.019Z,82.94
2022-10-23T06:15:00.154Z,83.00
2022-10-23T06:17:30.501Z,82.99
2022-10-23T06:20:03.676Z,82.98
2022-10-23T06:22:33.043Z,83.00
2022-10-23T06:25:02.030Z,83.00
2022-10-23T06:27:31.314Z,83.02
2022-10-23T06:30:00.463Z,83.03
2022-10-23T06:32:33.802Z,83.03
2022-10-23T06:35:02.945Z,83.08
2022-10-23T06:37:35.625Z,83.11
2022-10-23T06:40:05.334Z,83.02
2022-10-23T06:42:34.689Z,82.99
2022-10-23T06:45:06.445Z,83.09
2022-10-23T06:47:36.483Z,83.02
2022-10-23T06:50:06.210Z,83.00
2022-10-23T06:52:46.420Z,83.03
2022-10-23T06:55:17.373Z,83.20
2022-10-23T06:57:47.591Z,83.23
2022-10-23T07:00:16.912Z,83.20
2022-10-23T07:02:46.292Z,83.20
2022-10-23T07:05:15.646Z,83.15
2022-10-23T07:07:44.754Z,83.08
2022-10-23T07:12:50.186Z,83.11
2022-10-23T07:15:19.556Z,83.05
2022-10-23T07:17:48.731Z,83.15
2022-10-23T07:20:18.163Z,83.11
2022-10-23T07:22:56.954Z,83.20
2022-10-23T07:25:30.977Z,83.31
2022-10-23T07:28:00.732Z,83.28
2022-10-23T07:30:29.988Z,83.25
2022-10-23T07:32:59.051Z,83.26
2022-10-23T07:35:28.189Z,83.18
2022-10-23T07:37:57.713Z,83.10
2022-10-23T07:40:27.090Z,83.10
2022-10-23T07:42:56.197Z,83.05
2022-10-23T07:45:25.584Z,82.96
2022-10-23T07:47:54.741Z,83.17
2022-10-23T07:50:24.005Z,83.23
2022-10-23T07:52:53.226Z,83.26
2022-10-23T07:55:22.685Z,83.28
2022-10-23T07:57:51.958Z,83.23
2022-10-23T08:00:21.509Z,83.23
2022-10-23T08:02:50.846Z,83.28
2022-10-23T08:05:22.493Z,83.30
2022-10-23T08:07:51.690Z,83.27
2022-10-23T08:10:21.070Z,83.29
2022-10-23T08:12:50.315Z,83.43
2022-10-23T08:15:19.711Z,83.39
2022-10-23T08:17:48.857Z,83.42
2022-10-23T08:20:18.363Z,83.41
2022-10-23T08:22:47.522Z,83.41
2022-10-23T08:25:17.232Z,83.44
2022-10-23T08:27:52.139Z,83.36
2022-10-23T08:30:21.911Z,83.14
2022-10-23T08:32:51.380Z,83.10
2022-10-23T08:35:21.110Z,82.96
2022-10-23T08:37:50.441Z,82.89
2022-10-23T08:40:24.989Z,82.94
2022-10-23T08:43:34.057Z,83.00
2022-10-23T08:46:12.620Z,83.00
2022-10-23T08:48:51.038Z,83.08
2022-10-23T08:51:43.048Z,83.05
2022-10-23T08:54:44.833Z,83.24
2022-10-23T08:57:18.969Z,83.23
2022-10-23T08:59:51.522Z,83.12
2022-10-23T09:02:40.485Z,83.21
2022-10-23T09:05:26.646Z,83.22
2022-10-23T09:08:44.852Z,83.17
2022-10-23T09:11:55.744Z,83.15
2022-10-23T09:14:57.530Z,83.25
2022-10-23T09:17:40.338Z,83.35
2022-10-23T09:20:21.720Z,83.46
2022-10-23T09:23:23.565Z,83.50
2022-10-23T09:25:58.356Z,83.60
2022-10-23T09:28:37.822Z,83.60
2022-10-23T09:31:15.885Z,83.56
2022-10-23T09:34:00.870Z,83.54
2022-10-23T09:36:31.712Z,83.54
2022-10-23T09:39:02.624Z,83.53
2022-10-23T09:41:44.851Z,83.47
2022-10-23T09:44:35.382Z,83.40
2022-10-23T09:47:13.081Z,83.37
2022-10-23T09:49:50.101Z,83.49
2022-10-23T09:52:19.442Z,83.39
2022-10-23T09:54:59.686Z,83.43
2022-10-23T09:57:41.973Z,83.47
2022-10-23T10:00:28.803Z,83.27
2022-10-23T10:03:28.979Z,83.22
2022-10-23T10:06:05.880Z,83.30
2022-10-23T10:08:56.822Z,83.14
2022-10-23T10:12:22.355Z,83.11
2022-10-23T10:15:36.491Z,83.19
2022-10-23T10:18:17.448Z,83.17
2022-10-23T10:21:04.793Z,83.04
2022-10-23T10:23:46.521Z,82.89
2022-10-23T10:27:11.961Z,82.77
2022-10-23T10:30:05.938Z,82.63
2022-10-23T10:33:11.017Z,82.88
2022-10-23T10:35:55.038Z,82.97
2022-10-23T10:39:01.268Z,83.03
2022-10-23T10:41:48.337Z,83.10
2022-10-23T10:45:02.891Z,83.05
2022-10-23T10:48:23.065Z,83.15
2022-10-23T10:51:08.227Z,83.14
2022-10-23T10:54:17.335Z,83.00
2022-10-23T10:56:49.922Z,82.96
2022-10-23T10:59:44.285Z,82.95
2022-10-23T11:02:35.235Z,82.94
2022-10-23T11:05:24.915Z,82.90
2022-10-23T11:08:22.732Z,82.74
2022-10-23T11:10:59.673Z,82.93
2022-10-23T11:13:41.568Z,82.95
2022-10-23T11:16:31.363Z,82.94
2022-10-23T11:19:31.597Z,82.98
2022-10-23T11:22:12.369Z,83.09
2022-10-23T11:25:06.550Z,83.06
2022-10-23T11:28:10.744Z,83.11
2022-10-23T11:30:56.094Z,83.07
2022-10-23T11:33:49.016Z,83.10
2022-10-23T11:36:55.828Z,83.12
2022-10-23T11:39:37.944Z,83.06
2022-10-23T11:42:07.265Z,83.09
2022-10-23T11:44:52.471Z,83.04
2022-10-23T11:47:38.849Z,83.03
2022-10-23T11:50:14.539Z,83.04
2022-10-23T11:53:16.354Z,83.04
2022-10-23T11:56:11.342Z,83.07
2022-10-23T11:59:19.712Z,83.12
2022-10-23T12:01:52.703Z,83.20
2022-10-23T12:04:36.671Z,83.21
2022-10-23T12:07:24.349Z,83.14
2022-10-23T12:10:02.521Z,83.01
2022-10-23T12:12:44.320Z,83.00
2022-10-23T12:15:22.228Z,82.95
2022-10-23T12:17:55.844Z,82.84
2022-10-23T12:20:48.487Z,82.82
2022-10-23T12:23:53.445Z,82.80
2022-10-23T12:26:38.904Z,82.79
2022-10-23T12:30:04.626Z,82.85
2022-10-23T12:32:55.363Z,82.86
2022-10-23T12:36:06.727Z,82.84
2022-10-23T12:38:41.306Z,82.73
2022-10-23T12:41:19.123Z,82.69
2022-10-23T12:44:00.857Z,82.57
2022-10-23T12:46:43.400Z,82.59
2022-10-23T12:49:25.885Z,82.60
2022-10-23T12:52:02.266Z,82.38
2022-10-23T12:54:41.809Z,82.33
2022-10-23T12:57:43.871Z,82.45
2022-10-23T13:00:20.921Z,82.48
2022-10-23T13:03:05.070Z,82.39
2022-10-23T13:05:34.911Z,82.45
2022-10-23T13:08:06.541Z,82.49
2022-10-23T13:10:36.019Z,82.54
2022-10-23T13:13:08.911Z,82.59
2022-10-23T13:15:46.841Z,82.47
2022-10-23T13:18:18.045Z,82.41
2022-10-23T13:20:58.700Z,82.47
2022-10-23T13:23:38.015Z,82.50
2022-10-23T13:26:29.998Z,82.35
2022-10-23T13:29:00.168Z,82.22
2022-10-23T13:31:35.330Z,82.10
2022-10-23T13:34:06.309Z,81.89
2022-10-23T13:36:40.841Z,81.80
2022-10-23T13:39:13.465Z,81.75
2022-10-23T13:41:48.573Z,81.63
2022-10-23T13:44:21.884Z,81.51
2022-10-23T13:46:53.100Z,81.55
2022-10-23T13:49:22.536Z,81.64
2022-10-23T13:51:55.636Z,81.66
2022-10-23T13:57:02.741Z,81.59
2022-10-23T13:59:32.021Z,81.54
2022-10-23T14:02:01.971Z,81.62
2022-10-23T14:04:31.278Z,81.61
2022-10-23T14:07:00.825Z,81.60
2022-10-23T14:09:30.168Z,81.54
2022-10-23T14:11:59.574Z,81.49
2022-10-23T14:14:28.920Z,81.50
2022-10-23T14:16:58.009Z,81.49
2022-10-23T14:19:27.348Z,81.41
2022-10-23T14:21:56.604Z,81.33
2022-10-23T14:24:25.916Z,81.19
2022-10-23T14:26:55.026Z,81.31
2022-10-23T14:29:24.629Z,81.33
2022-10-23T14:31:54.074Z,81.51
2022-10-23T14:34:23.394Z,81.46
2022-10-23T14:37:07.410Z,81.57
2022-10-23T14:39:38.383Z,81.64
2022-10-23T14:42:07.766Z,81.76
2022-10-23T14:44:39.920Z,81.89
2022-10-23T14:47:09.359Z,81.93
2022-10-23T14:49:41.033Z,81.67
2022-10-23T14:52:10.857Z,81.28
2022-10-23T14:54:39.955Z,81.31
2022-10-23T14:57:09.001Z,80.87
2022-10-23T14:59:38.302Z,80.91
2022-10-23T15:02:07.631Z,80.90
2022-10-23T15:04:37.028Z,80.81
2022-10-23T15:07:06.782Z,80.75
2022-10-23T15:09:37.728Z,80.76
2022-10-23T15:12:08.558Z,80.84
2022-10-23T15:14:37.784Z,80.83
2022-10-23T15:17:06.888Z,80.88
2022-10-23T15:19:36.192Z,80.93
2022-10-23T15:22:05.659Z,81.02
2022-10-23T15:24:35.243Z,81.10
2022-10-23T15:27:04.932Z,80.76
2022-10-23T15:29:34.599Z,80.70
2022-10-23T15:32:06.762Z,80.62
2022-10-23T15:34:36.315Z,80.30
2022-10-23T15:37:06.431Z,80.36
2022-10-23T15:39:36.562Z,80.24
2022-10-23T15:42:08.343Z,80.17
2022-10-23T15:44:37.805Z,80.05
2022-10-23T15:47:07.676Z,79.79
2022-10-23T15:49:38.246Z,79.62
2022-10-23T15:54:39.971Z,79.71
2022-10-23T15:57:09.262Z,79.93
2022-10-23T15:59:38.445Z,79.94
2022-10-23T16:02:07.969Z,79.95
2022-10-23T16:04:37.956Z,79.55
2022-10-23T16:07:08.467Z,79.61
2022-10-23T16:09:38.676Z,80.01
2022-10-23T16:12:08.343Z,79.76
2022-10-23T16:14:37.517Z,79.58
2022-10-23T16:17:08.581Z,79.47
2022-10-23T16:19:38.060Z,79.54
2022-10-23T16:22:07.840Z,79.38
2022-10-23T16:24:37.372Z,79.33
2022-10-23T16:27:07.222Z,79.58
2022-10-23T16:29:36.513Z,79.77
2022-10-23T16:32:05.822Z,80.02
2022-10-23T16:34:34.917Z,79.98
2022-10-23T16:37:04.218Z,79.72
2022-10-23T16:39:33.544Z,79.94
2022-10-23T16:42:03.177Z,79.76
2022-10-23T16:44:32.426Z,79.43
2022-10-23T16:47:01.572Z,79.12
2022-10-23T16:49:32.210Z,79.13
2022-10-23T16:52:01.398Z,79.17
2022-10-23T16:54:30.647Z,79.02
2022-10-23T16:56:59.877Z,78.83
2022-10-23T16:59:29.079Z,79.34
2022-10-23T17:01:58.539Z,79.17
2022-10-23T17:04:27.882Z,79.20
2022-10-23T17:06:57.409Z,78.89
2022-10-23T17:09:28.729Z,78.59
2022-10-23T17:11:58.451Z,78.35
2022-10-23T17:14:31.562Z,78.47
2022-10-23T17:17:03.472Z,78.30
2022-10-23T17:19:44.231Z,77.99
2022-10-23T17:22:15.690Z,78.40
2022-10-23T17:24:48.761Z,78.10
2022-10-23T17:27:21.250Z,78.46
2022-10-23T17:29:50.599Z,78.41
2022-10-23T17:32:22.869Z,78.09
2022-10-23T17:34:52.414Z,77.61
2022-10-23T17:37:21.667Z,78.03
2022-10-23T17:39:51.342Z,78.04
2022-10-23T17:42:21.372Z,78.13
2022-10-23T17:44:50.975Z,77.94
2022-10-23T17:47:20.463Z,77.98
2022-10-23T17:49:49.661Z,78.04
2022-10-23T17:52:18.914Z,77.80
2022-10-23T17:54:52.152Z,77.86
2022-10-23T17:59:55.479Z,78.23
2022-10-23T18:02:24.910Z,77.84
2022-10-23T18:04:55.086Z,77.46
2022-10-23T18:07:26.755Z,77.37
2022-10-23T18:09:57.232Z,77.80
2022-10-23T18:12:27.204Z,78.23
2022-10-23T18:14:57.384Z,78.15
2022-10-23T18:17:26.427Z,77.90
2022-10-23T18:19:59.566Z,77.71
2022-10-23T18:22:31.349Z,78.08
2022-10-23T18:25:01.463Z,78.36
2022-10-23T18:27:30.745Z,78.38
2022-10-23T18:30:00.188Z,78.15
2022-10-23T18:32:31.069Z,77.83
2022-10-23T18:35:00.502Z,77.90
2022-10-23T18:37:31.832Z,77.66
2022-10-23T18:40:02.150Z,76.94
2022-10-23T18:42:31.282Z,76.87
2022-10-23T18:45:00.543Z,76.93
2022-10-23T18:47:29.723Z,76.38
2022-10-23T18:49:59.680Z,76.40
2022-10-23T18:52:28.625Z,76.60
2022-10-23T18:54:57.871Z,76.86
2022-10-23T18:57:27.325Z,76.41
2022-10-23T18:59:59.195Z,76.53
2022-10-23T19:02:29.042Z,76.24
2022-10-23T19:04:58.441Z,76.08
2022-10-23T19:07:28.511Z,76.01
2022-10-23T19:09:58.266Z,76.52
2022-10-23T19:12:27.542Z,76.98
2022-10-23T19:14:56.846Z,76.78
2022-10-23T19:17:41.316Z,76.42
2022-10-23T19:20:19.284Z,76.33
2022-10-23T19:22:53.679Z,76.17
2022-10-23T19:25:32.628Z,76.17
2022-10-23T19:28:04.151Z,76.05
2022-10-23T19:30:34.178Z,75.79
2022-10-23T19:33:03.795Z,75.87
2022-10-23T19:35:33.223Z,75.75
2022-10-23T19:38:02.695Z,75.01
2022-10-23T19:40:31.908Z,74.97
2022-10-23T19:43:02.329Z,75.21
2022-10-23T19:48:00.842Z,75.37
2022-10-23T19:50:29.708Z,75.32
2022-10-23T19:52:59.438Z,75.61
2022-10-23T19:55:28.559Z,75.63
2022-10-23T19:57:57.565Z,75.03
2022-10-23T20:00:26.963Z,75.21
2022-10-23T20:02:56.934Z,75.59
2022-10-23T20:05:25.927Z,75.96
2022-10-23T20:07:55.044Z,75.55
2022-10-23T20:10:24.556Z,75.57
2022-10-23T20:12:56.899Z,75.67
2022-10-23T20:15:31.555Z,75.44
2022-10-23T20:18:00.965Z,75.19
2022-10-23T20:20:30.121Z,75.61
2022-10-23T20:23:00.130Z,75.77
2022-10-23T20:25:29.417Z,75.60
2022-10-23T20:27:58.435Z,75.15
2022-10-23T20:30:27.498Z,75.14
2022-10-23T20:32:56.722Z,74.91
2022-10-23T20:35:26.068Z,74.85
2022-10-23T20:37:55.451Z,75.11
2022-10-23T20:40:24.437Z,74.95
2022-10-23T20:42:53.467Z,74.69
2022-10-23T20:45:22.519Z,73.83
2022-10-23T20:47:51.606Z,74.06
2022-10-23T20:50:21.887Z,74.28
2022-10-23T20:52:51.453Z,74.07
2022-10-23T20:55:20.818Z,73.94
2022-10-23T20:57:50.113Z,73.83
2022-10-23T21:00:19.440Z,73.78
2022-10-23T21:02:51.344Z,74.05
2022-10-23T21:05:22.329Z,73.89
2022-10-23T21:07:51.381Z,73.86
2022-10-23T21:10:20.749Z,73.55
2022-10-23T21:12:49.631Z,73.46
2022-10-23T21:15:19.188Z,72.85
2022-10-23T21:17:50.914Z,72.66
2022-10-23T21:20:19.897Z,72.50
2022-10-23T21:22:49.254Z,73.06
2022-10-23T21:25:18.375Z,73.61
2022-10-23T21:27:47.729Z,73.73
2022-10-23T21:30:17.002Z,73.53
2022-10-23T21:32:46.161Z,73.71
2022-10-23T21:35:15.239Z,73.51
2022-10-23T21:37:44.604Z,73.15
2022-10-23T21:40:14.179Z,72.97
2022-10-23T21:42:44.091Z,72.50
2022-10-23T21:45:13.281Z,72.37
2022-10-23T21:47:42.601Z,72.15
2022-10-23T21:50:12.850Z,72.17
2022-10-23T21:52:42.804Z,72.18
2022-10-23T21:55:12.308Z,71.98
2022-10-23T21:57:41.348Z,71.97
2022-10-23T22:00:11.326Z,72.20
2022-10-23T22:02:40.962Z,72.13
2022-10-23T22:05:10.328Z,71.24
2022-10-23T22:07:39.443Z,70.62
2022-10-23T22:10:09.230Z,69.61
2022-10-23T22:12:38.171Z,69.23
2022-10-23T22:15:13.469Z,69.89
2022-10-23T22:17:42.755Z,70.03
2022-10-23T22:20:12.505Z,69.68
2022-10-23T22:22:41.868Z,70.21
2022-10-23T22:25:11.474Z,71.08
2022-10-23T22:27:40.651Z,70.93
2022-10-23T22:30:10.035Z,70.65
2022-10-23T22:32:39.119Z,70.31
2022-10-23T22:35:08.889Z,69.95
2022-10-23T22:37:37.999Z,70.17
2022-10-23T22:40:09.506Z,70.40
2022-10-23T22:42:39.855Z,69.80
2022-10-23T22:45:09.870Z,69.39
2022-10-23T22:47:39.028Z,68.88
2022-10-23T22:50:09.196Z,68.46
2022-10-23T22:52:38.250Z,68.72
2022-10-23T22:55:08.446Z,69.01
2022-10-23T22:57:37.667Z,69.20
2022-10-23T23:00:08.500Z,69.60
2022-10-23T23:02:37.632Z,70.57
2022-10-23T23:05:07.679Z,70.63
2022-10-23T23:07:36.576Z,70.38
2022-10-23T23:10:06.128Z,69.40
2022-10-23T23:12:37.953Z,69.22
2022-10-23T23:15:07.508Z,70.11
2022-10-23T23:17:36.436Z,70.51
2022-10-23T23:20:06.379Z,70.99
2022-10-23T23:22:35.437Z,71.50
2022-10-23T23:25:05.145Z,71.91
2022-10-23T23:27:34.050Z,72.08
2022-10-23T23:30:03.614Z,72.22
2022-10-23T23:32:32.912Z,72.49
2022-10-23T23:35:03.798Z,72.73
2022-10-23T23:37:32.785Z,72.82
2022-10-23T23:40:01.814Z,72.93
2022-10-23T23:42:32.410Z,73.09
2022-10-23T23:45:10.250Z,72.95
2022-10-23T23:47:46.504Z,72.97
2022-10-23T23:50:15.989Z,73.07
2022-10-23T23:52:45.043Z,72.79
2022-10-23T23:55:14.442Z,72.42
2022-10-23T23:57:43.636Z,72.58
